Time;durP1;ratioP1;P1;durP2;ratioP2;P2;SDS_P1;SDS_P2;PMS_P1;PMS_P2;Temp;Humidity;BMP_temperature;BMP_pressure;BME280_temperature;BME280_humidity;BME280_pressure;Samples;Min_cycle;Max_cycle;Signal;HPM_P1;HPM_P2
2023/03/01 00:01:52;;;;;;;46.73;26.10;;;-0.20;99.90;;;-0.31;64.99;101564.97;4938000;29;20218;-73
2023/03/01 00:04:21;;;;;;;48.10;26.00;;;-0.30;99.90;;;-0.31;65.53;101570.88;4938806;29;20289;-72
2023/03/01 00:06:50;;;;;;;47.27;24.60;;;-0.30;99.90;;;-0.33;65.47;101558.91;4932951;29;20217;-72
2023/03/01 00:09:19;;;;;;;45.47;25.70;;;-0.30;99.90;;;-0.32;64.97;101558.16;4936078;29;20209;-74
2023/03/01 00:11:50;;;;;;;41.10;25.07;;;-0.30;99.90;;;-0.32;65.19;101560.69;4937776;29;20475;-73
2023/03/01 00:14:20;;;;;;;50.17;27.23;;;-0.30;99.90;;;-0.28;65.15;101562.59;4937511;29;20213;-72
2023/03/01 00:16:49;;;;;;;45.17;24.77;;;-0.30;99.90;;;-0.27;65.16;101557.63;4938009;29;20675;-73
2023/03/01 00:19:21;;;;;;;46.00;25.33;;;-0.20;99.90;;;-0.28;65.07;101560.94;4937119;29;20207;-73
2023/03/01 00:21:50;;;;;;;49.10;25.37;;;-0.20;99.90;;;-0.30;64.94;101551.50;4937317;29;20244;-73
2023/03/01 00:24:19;;;;;;;48.43;26.23;;;-0.30;99.90;;;-0.33;65.10;101548.78;4930515;29;20249;-71
2023/03/01 00:26:48;;;;;;;47.43;25.13;;;-0.30;99.90;;;-0.31;65.45;101539.63;4935692;29;20245;-73
2023/03/01 00:29:18;;;;;;;50.17;27.70;;;-0.30;99.90;;;-0.33;65.36;101546.25;4934850;29;20265;-73
2023/03/01 00:31:47;;;;;;;47.60;26.10;;;-0.30;99.90;;;-0.36;65.30;101541.91;4931307;29;20233;-72
2023/03/01 00:34:19;;;;;;;50.93;27.30;;;-0.30;99.90;;;-0.39;65.30;101535.81;4939354;29;20553;-73
2023/03/01 00:36:49;;;;;;;55.10;26.60;;;-0.40;99.90;;;-0.43;65.45;101546.53;4935248;29;20248;-75
2023/03/01 00:39:18;;;;;;;52.77;26.23;;;-0.50;99.90;;;-0.49;65.42;101539.47;4935659;29;20225;-73
2023/03/01 00:41:48;;;;;;;53.80;26.87;;;-0.40;99.90;;;-0.55;65.79;101540.00;4933894;29;20308;-76
2023/03/01 00:44:17;;;;;;;50.80;27.53;;;-0.50;99.90;;;-0.57;65.66;101544.09;4928270;29;20214;-73
2023/03/01 00:46:47;;;;;;;49.87;26.30;;;-0.50;99.90;;;-0.60;66.18;101545.56;4934351;29;20221;-73
2023/03/01 00:49:15;;;;;;;49.33;27.23;;;-0.60;99.90;;;-0.63;66.20;101545.38;4935405;29;20279;-71
2023/03/01 00:51:44;;;;;;;50.00;26.57;;;-0.50;99.90;;;-0.66;66.05;101542.66;4920123;29;20233;-72
2023/03/01 00:54:12;;;;;;;49.70;26.50;;;-0.60;99.90;;;-0.65;66.50;101545.31;4934805;29;20567;-73
2023/03/01 00:56:41;;;;;;;49.60;25.73;;;-0.60;99.90;;;-0.65;66.49;101540.25;4939090;29;20224;-73
2023/03/01 00:59:10;;;;;;;41.97;24.83;;;-0.60;99.90;;;-0.67;66.34;101541.81;4934051;29;20214;-73
2023/03/01 01:01:38;;;;;;;48.43;25.70;;;-0.60;99.90;;;-0.67;66.63;101530.81;4939103;29;20659;-72
2023/03/01 01:04:12;;;;;;;44.60;25.80;;;-0.60;99.90;;;-0.66;66.25;101528.38;4940821;29;20261;-74
2023/03/01 01:06:44;;;;;;;48.33;26.97;;;-0.60;99.90;;;-0.64;66.44;101524.28;4940755;29;20202;-72
2023/03/01 01:09:18;;;;;;;51.77;25.97;;;-0.60;99.90;;;-0.64;66.80;101523.41;4938815;29;20202;-72
2023/03/01 01:11:48;;;;;;;51.33;25.90;;;-0.60;99.90;;;-0.62;66.48;101516.78;4941106;29;20306;-73
2023/03/01 01:14:20;;;;;;;40.43;22.53;;;-0.50;99.90;;;-0.63;66.57;101509.94;4938499;29;20210;-74
2023/03/01 01:16:49;;;;;;;49.67;27.17;;;-0.50;99.90;;;-0.66;66.54;101509.78;4937470;29;20206;-73
2023/03/01 01:19:24;;;;;;;41.17;23.07;;;-0.50;99.90;;;-0.66;65.89;101508.13;4937704;29;20234;-73
2023/03/01 01:21:54;;;;;;;45.40;24.80;;;-0.60;99.90;;;-0.64;66.86;101514.16;4940660;29;20242;-73
2023/03/01 01:24:23;;;;;;;44.27;23.73;;;-0.50;99.90;;;-0.64;66.45;101511.63;4939352;29;20206;-72
2023/03/01 01:26:52;;;;;;;47.00;23.57;;;-0.50;99.90;;;-0.64;66.01;101504.03;4937847;29;20585;-73
2023/03/01 01:29:21;;;;;;;46.73;25.07;;;-0.50;99.90;;;-0.63;66.35;101500.69;4940409;29;20230;-72
2023/03/01 01:31:50;;;;;;;46.63;24.53;;;-0.50;99.90;;;-0.62;66.43;101502.47;4939266;29;20230;-74
2023/03/01 01:34:23;;;;;;;44.57;24.43;;;-0.50;99.90;;;-0.60;66.02;101505.94;4939669;29;20324;-74
2023/03/01 01:36:54;;;;;;;48.60;24.77;;;-0.50;99.90;;;-0.62;65.74;101497.41;4934587;29;20254;-73
2023/03/01 01:39:23;;;;;;;48.47;24.83;;;-0.50;99.90;;;-0.61;66.19;101493.22;4925485;29;20225;-72
2023/03/01 01:41:52;;;;;;;45.20;24.93;;;-0.50;99.90;;;-0.61;66.19;101500.81;4936246;29;20511;-73
2023/03/01 01:44:26;;;;;;;46.00;24.07;;;-0.50;99.90;;;-0.64;66.05;101503.16;4940438;29;20301;-73
2023/03/01 01:46:58;;;;;;;44.30;25.10;;;-0.50;99.90;;;-0.61;66.39;101499.13;4932082;29;20674;-74
2023/03/01 01:49:36;;;;;;;42.07;23.37;;;-0.50;99.90;;;-0.59;66.01;101500.13;4929940;29;20218;-72
2023/03/01 01:52:11;;;;;;;45.17;24.73;;;-0.50;99.90;;;-0.60;65.58;101482.28;4940720;29;20265;-73
2023/03/01 01:54:46;;;;;;;44.20;25.37;;;-0.60;99.90;;;-0.62;65.99;101486.41;4938075;29;20198;-72
2023/03/01 01:57:20;;;;;;;50.40;26.03;;;-0.50;99.90;;;-0.63;66.00;101488.03;4937367;29;20202;-74
2023/03/01 01:59:53;;;;;;;47.63;26.13;;;-0.60;99.90;;;-0.66;66.14;101490.41;4924581;29;20221;-77
2023/03/01 02:02:23;;;;;;;44.67;25.13;;;-0.60;99.90;;;-0.68;66.57;101486.91;4939180;29;20261;-74
2023/03/01 02:05:04;;;;;;;46.10;26.10;;;-0.60;99.90;;;-0.70;66.49;101485.06;4936858;29;20238;-78
2023/03/01 02:07:34;;;;;;;44.67;24.93;;;-0.60;99.90;;;-0.74;66.82;101478.97;4951047;29;20178;-78
2023/03/01 02:10:04;;;;;;;47.57;25.80;;;-0.70;99.90;;;-0.83;66.90;101466.69;5048337;23;20458;-77
2023/03/01 02:12:36;;;;;;;52.20;26.23;;;-0.60;99.90;;;-0.78;66.91;101477.06;5208824;23;20237;-77
2023/03/01 02:15:07;;;;;;;41.97;24.20;;;-0.70;99.90;;;-0.79;67.17;101472.78;5117257;23;20229;-75
2023/03/01 02:17:36;;;;;;;45.00;24.57;;;-0.70;99.90;;;-0.79;67.20;101483.78;5230619;23;20733;-75
2023/03/01 02:20:21;;;;;;;45.37;24.83;;;-0.70;99.90;;;-0.79;66.84;101475.31;5090821;23;20830;-76
2023/03/01 02:22:51;;;;;;;45.83;24.73;;;-0.70;99.90;;;-0.82;67.03;101468.41;4978343;28;20209;-77
2023/03/01 02:28:05;;;;;;;44.90;23.93;;;-0.70;99.90;;;-0.82;67.11;101472.59;5006747;23;20240;-76
2023/03/01 02:31:41;;;;;;;46.37;23.57;;;-0.70;99.90;;;-0.84;66.67;101470.00;4956515;28;20194;-78
2023/03/01 02:33:28;;;;;;;39.20;22.70;;;-0.70;99.90;;;-0.86;67.09;101466.50;4970812;28;20248;-78
2023/03/01 02:35:57;;;;;;;43.80;24.67;;;-0.70;99.90;;;-0.85;67.34;101462.31;4958851;28;20206;-76
2023/03/01 02:38:26;;;;;;;46.80;22.93;;;-0.70;99.90;;;-0.86;67.28;101458.91;4959429;28;20193;-78
2023/03/01 02:40:56;;;;;;;46.43;24.67;;;-0.70;99.90;;;-0.86;67.57;101458.03;4962832;28;20214;-79
2023/03/01 02:43:31;;;;;;;47.57;24.80;;;-0.80;99.90;;;-0.90;67.58;101454.44;4960616;28;20227;-77
2023/03/01 02:46:07;;;;;;;42.57;23.57;;;-0.80;99.90;;;-0.89;67.57;101465.44;4967107;28;20207;-77
2023/03/01 02:48:44;;;;;;;42.47;22.87;;;-0.80;99.90;;;-0.94;67.71;101457.59;4962435;28;20216;-78
2023/03/01 02:51:41;;;;;;;41.70;23.90;;;-0.80;99.90;;;-0.93;67.29;101459.34;4967662;28;20249;-78
2023/03/01 02:54:22;;;;;;;46.33;24.80;;;-0.80;99.90;;;-0.89;67.41;101468.84;4958704;28;20289;-78
2023/03/01 02:56:52;;;;;;;47.87;24.43;;;-0.80;99.90;;;-0.92;67.50;101463.63;4956497;28;20202;-78
2023/03/01 02:59:28;;;;;;;42.17;23.37;;;-0.80;99.90;;;-0.93;67.72;101461.00;4955624;28;20269;-81
2023/03/01 03:01:58;;;;;;;44.77;24.43;;;-0.80;99.90;;;-0.94;67.28;101451.66;5038956;23;20244;-82
2023/03/01 03:04:27;;;;;;;47.00;24.00;;;-0.80;99.90;;;-0.96;67.54;101438.91;4973255;29;20213;-82
2023/03/01 03:06:55;;;;;;;45.40;24.90;;;-0.80;99.90;;;-0.98;67.59;101437.97;4976723;28;20283;-82
2023/03/01 03:09:24;;;;;;;44.07;24.90;;;-0.80;99.90;;;-1.00;67.80;101437.00;4965674;28;20202;-82
2023/03/01 03:11:53;;;;;;;51.80;26.07;;;-0.90;99.90;;;-1.03;68.04;101437.72;4970391;28;20225;-81
2023/03/01 03:14:23;;;;;;;48.20;25.17;;;-0.90;99.90;;;-1.07;67.70;101433.28;4973349;28;20239;-80
2023/03/01 03:16:52;;;;;;;44.73;23.90;;;-0.90;99.90;;;-1.07;68.03;101430.75;4977525;28;20217;-82
2023/03/01 03:19:22;;;;;;;50.03;25.93;;;-1.00;99.90;;;-1.10;68.11;101430.56;4971506;28;20209;-82
2023/03/01 03:21:50;;;;;;;46.30;25.47;;;-1.00;99.90;;;-1.10;68.05;101420.44;4965254;29;20651;-84
2023/03/01 03:24:19;;;;;;;44.03;24.77;;;-1.00;99.90;;;-1.11;67.73;101410.22;4970915;28;20209;-78
2023/03/01 03:26:49;;;;;;;49.90;26.03;;;-1.00;99.90;;;-1.14;68.15;101413.47;4963906;28;20269;-81
2023/03/01 03:29:17;;;;;;;48.17;24.23;;;-1.00;99.90;;;-1.15;68.33;101416.75;4971144;28;20342;-80
2023/03/01 03:31:46;;;;;;;51.47;25.40;;;-1.00;99.90;;;-1.16;68.47;101411.63;4972012;28;20240;-81
2023/03/01 03:34:17;;;;;;;49.87;25.13;;;-1.00;99.90;;;-1.15;68.42;101413.34;4947357;29;20717;-84
2023/03/01 03:36:48;;;;;;;45.10;24.30;;;-1.00;99.90;;;-1.15;68.41;101409.16;4952707;29;20224;-84
2023/03/01 03:39:17;;;;;;;41.03;23.27;;;-1.00;99.90;;;-1.14;68.25;101407.50;4967260;29;20213;-79
2023/03/01 03:41:49;;;;;;;43.27;23.13;;;-1.00;99.90;;;-1.15;68.11;101419.28;4964717;28;20249;-75
2023/03/01 03:44:17;;;;;;;42.10;23.70;;;-1.00;99.90;;;-1.14;67.82;101420.16;4964615;29;20319;-81
2023/03/01 03:46:46;;;;;;;45.33;23.57;;;-1.00;99.90;;;-1.13;67.69;101420.25;4969818;28;20217;-83
2023/03/01 03:49:14;;;;;;;36.93;22.43;;;-1.00;99.90;;;-1.12;68.34;101421.13;4963645;28;20213;-81
2023/03/01 03:51:43;;;;;;;43.60;23.93;;;-1.00;99.90;;;-1.11;67.70;101411.09;4969312;29;20221;-80
2023/03/01 03:54:13;;;;;;;46.53;24.13;;;-1.00;99.90;;;-1.07;68.08;101407.06;4965773;28;20233;-79
2023/03/01 03:56:43;;;;;;;42.30;22.90;;;-1.00;99.90;;;-1.08;67.90;101391.03;4963725;28;20248;-73
2023/03/01 03:59:12;;;;;;;48.03;25.57;;;-0.90;99.90;;;-1.04;67.55;101405.59;4972375;28;20213;-77
2023/03/01 04:01:41;;;;;;;45.90;24.97;;;-0.90;99.90;;;-1.02;68.08;101403.16;4986072;23;20547;-77
2023/03/01 04:04:09;;;;;;;42.57;23.80;;;-0.80;99.90;;;-1.01;67.54;101395.66;4976795;28;20205;-78
2023/03/01 04:06:38;;;;;;;48.93;25.23;;;-0.90;99.90;;;-1.00;67.78;101394.84;4976136;28;20193;-75
2023/03/01 04:09:07;;;;;;;41.70;23.80;;;-0.90;99.90;;;-1.00;67.25;101389.81;5057630;23;20285;-77
2023/03/01 04:11:38;;;;;;;49.07;24.87;;;-0.90;99.90;;;-0.99;67.25;101380.59;5091412;23;20312;-79
2023/03/01 04:14:07;;;;;;;47.17;26.40;;;-0.90;99.90;;;-1.02;67.38;101386.34;5001680;23;20237;-78
2023/03/01 04:16:36;;;;;;;47.10;25.50;;;-0.90;99.90;;;-1.04;67.38;101382.84;5117637;23;21813;-75
2023/03/01 04:19:06;;;;;;;45.30;25.73;;;-0.90;99.90;;;-1.04;67.39;101394.59;4938555;29;20216;-77
2023/03/01 04:21:35;;;;;;;44.63;25.27;;;-1.00;99.90;;;-1.09;67.53;101388.44;4924560;29;20788;-74
2023/03/01 04:24:06;;;;;;;43.77;25.43;;;-1.00;99.90;;;-1.08;67.37;101397.75;4932321;29;20222;-74
2023/03/01 04:26:38;;;;;;;45.80;24.13;;;-1.00;99.90;;;-1.13;67.90;101392.44;4940971;29;20392;-81
2023/03/01 04:29:06;;;;;;;45.30;23.87;;;-1.00;99.90;;;-1.11;67.76;101395.03;4940041;29;20267;-77
2023/03/01 04:31:35;;;;;;;46.43;24.23;;;-1.00;99.90;;;-1.11;67.69;101392.50;4954826;29;20205;-79
2023/03/01 04:34:05;;;;;;;44.70;23.27;;;-1.00;99.90;;;-1.12;67.72;101383.19;4951713;29;20257;-81
2023/03/01 04:36:35;;;;;;;46.03;24.30;;;-1.00;99.90;;;-1.15;67.69;101381.34;4957767;29;20227;-81
2023/03/01 04:39:11;;;;;;;44.57;25.53;;;-1.00;99.90;;;-1.17;68.11;101375.34;4955870;29;20193;-81
2023/03/01 04:41:45;;;;;;;47.33;23.63;;;-1.00;99.90;;;-1.17;67.98;101372.81;4955558;29;20220;-81
2023/03/01 04:44:14;;;;;;;48.03;24.10;;;-1.00;99.90;;;-1.17;67.92;101372.81;4956033;29;20198;-84
2023/03/01 04:46:42;;;;;;;45.87;25.20;;;-1.00;99.90;;;-1.18;68.43;101366.00;4947569;29;20238;-81
2023/03/01 04:49:11;;;;;;;46.20;23.60;;;-1.00;99.90;;;-1.21;67.89;101370.91;4955943;29;20241;-84
2023/03/01 04:51:43;;;;;;;49.77;24.93;;;-1.10;99.90;;;-1.19;68.33;101365.94;4953703;29;20206;-78
2023/03/01 04:54:11;;;;;;;43.87;24.50;;;-1.00;99.90;;;-1.20;68.36;101357.47;4954211;29;20210;-79
2023/03/01 04:56:41;;;;;;;48.30;25.77;;;-1.00;99.90;;;-1.22;68.45;101356.50;4954909;29;20679;-79
2023/03/01 04:59:12;;;;;;;48.47;25.53;;;-1.10;99.90;;;-1.23;68.52;101357.28;4956639;29;20209;-81
2023/03/01 05:01:43;;;;;;;41.97;24.27;;;-1.00;99.90;;;-1.23;68.86;101362.34;4940110;29;20573;-81
2023/03/01 05:04:13;;;;;;;44.50;24.03;;;-1.10;99.90;;;-1.25;68.78;101353.81;4954429;29;20281;-80
2023/03/01 05:06:41;;;;;;;47.50;24.83;;;-1.10;99.90;;;-1.26;68.28;101360.50;4956776;29;20278;-83
2023/03/01 05:09:12;;;;;;;47.73;26.63;;;-1.10;99.90;;;-1.27;68.56;101350.31;4954674;29;20221;-80
2023/03/01 05:11:42;;;;;;;48.70;26.43;;;-1.10;99.90;;;-1.24;68.64;101365.66;5045516;23;20910;-79
2023/03/01 05:14:11;;;;;;;44.37;26.93;;;-1.10;99.90;;;-1.24;68.81;101368.19;4977338;23;20244;-81
2023/03/01 05:16:41;;;;;;;49.83;26.37;;;-1.10;99.90;;;-1.23;68.71;101367.41;4976536;28;20201;-83
2023/03/01 05:19:15;;;;;;;42.80;24.17;;;-1.10;99.90;;;-1.24;68.25;101375.78;4975880;28;20193;-82
2023/03/01 05:22:04;;;;;;;46.53;25.33;;;-1.10;99.90;;;-1.22;68.33;101369.13;4977093;28;20201;-84
2023/03/01 05:24:35;;;;;;;45.77;25.03;;;-1.10;99.90;;;-1.24;68.70;101366.53;5002582;23;20232;-76
2023/03/01 05:27:08;;;;;;;47.93;24.63;;;-1.10;99.90;;;-1.24;68.56;101376.66;5025035;23;20540;-82
2023/03/01 05:29:39;;;;;;;50.87;27.20;;;-1.20;99.90;;;-1.27;68.52;101381.53;4955341;28;20421;-82
2023/03/01 05:32:08;;;;;;;54.73;26.70;;;-1.10;99.90;;;-1.26;68.63;101392.50;4951521;29;20310;-82
2023/03/01 05:34:38;;;;;;;48.17;25.03;;;-1.10;99.90;;;-1.26;68.93;101397.56;4941159;29;20316;-76
2023/03/01 05:37:07;;;;;;;48.50;26.17;;;-1.10;99.90;;;-1.24;68.79;101399.41;4933737;29;20209;-74
2023/03/01 05:39:37;;;;;;;51.30;27.07;;;-1.10;99.90;;;-1.25;68.65;101399.34;4914966;29;20224;-71
2023/03/01 05:42:11;;;;;;;52.83;27.77;;;-1.10;99.90;;;-1.21;68.91;101403.78;4939577;29;20238;-71
2023/03/01 05:44:40;;;;;;;46.30;25.37;;;-1.10;99.90;;;-1.19;69.08;101403.84;4937755;29;20210;-73
2023/03/01 05:47:08;;;;;;;48.93;27.33;;;-1.10;99.90;;;-1.16;68.97;101399.84;4931488;29;20221;-73
2023/03/01 05:49:37;;;;;;;47.73;26.03;;;-1.00;99.90;;;-1.16;68.35;101409.97;4936049;29;20240;-72
2023/03/01 05:52:07;;;;;;;42.27;24.20;;;-1.00;99.90;;;-1.15;68.56;101406.63;4940206;29;20216;-71
2023/03/01 05:54:36;;;;;;;50.03;26.57;;;-1.00;99.90;;;-1.13;68.32;101405.09;4937300;29;20301;-72
2023/03/01 05:57:07;;;;;;;51.37;26.23;;;-1.00;99.90;;;-1.10;68.50;101404.41;4936167;29;20207;-73
2023/03/01 05:59:36;;;;;;;46.90;26.00;;;-1.00;99.90;;;-1.11;68.84;101400.09;4938444;29;20286;-74
2023/03/01 06:02:05;;;;;;;50.93;25.43;;;-1.00;99.90;;;-1.06;68.42;101404.66;4932839;29;20229;-71
2023/03/01 06:04:33;;;;;;;50.20;25.67;;;-0.90;99.90;;;-1.04;68.32;101404.72;4922402;29;20210;-73
2023/03/01 06:07:02;;;;;;;54.00;25.50;;;-0.90;99.90;;;-1.02;68.69;101403.16;4935009;29;20206;-69
2023/03/01 06:09:31;;;;;;;48.80;25.33;;;-0.80;99.90;;;-0.97;68.74;101402.63;4940712;29;20296;-72
2023/03/01 06:11:59;;;;;;;52.10;25.50;;;-0.80;99.90;;;-0.90;68.50;101397.94;4933323;29;20238;-75
2023/03/01 06:14:29;;;;;;;47.70;25.40;;;-0.80;99.90;;;-0.85;68.74;101397.38;4932116;29;20229;-74
2023/03/01 06:16:59;;;;;;;48.33;26.17;;;-0.70;99.90;;;-0.80;68.01;101395.13;4927917;29;20210;-73
2023/03/01 06:19:27;;;;;;;43.60;25.27;;;-0.60;99.90;;;-0.74;67.93;101391.28;4938109;29;20210;-71
2023/03/01 06:21:56;;;;;;;50.37;25.90;;;-0.60;99.90;;;-0.66;68.10;101391.72;4936419;29;20225;-74
2023/03/01 06:24:24;;;;;;;51.37;25.83;;;-0.50;99.90;;;-0.57;68.04;101393.88;4936179;29;20222;-73
2023/03/01 06:26:54;;;;;;;49.07;26.03;;;-0.40;99.90;;;-0.51;67.52;101386.63;4932021;29;20711;-74
2023/03/01 06:29:24;;;;;;;51.73;26.13;;;-0.30;99.90;;;-0.46;67.51;101392.78;4937372;29;20244;-77
2023/03/01 06:31:54;;;;;;;46.13;25.30;;;-0.30;99.90;;;-0.39;67.19;101396.53;4931771;29;20325;-73
2023/03/01 06:34:22;;;;;;;47.57;25.23;;;-0.20;99.90;;;-0.31;66.99;101397.81;4937244;29;20206;-72
2023/03/01 06:36:51;;;;;;;48.90;25.13;;;-0.20;99.90;;;-0.22;67.10;101399.97;4936849;29;20221;-77
2023/03/01 06:39:20;;;;;;;46.63;25.40;;;-0.10;99.90;;;-0.12;66.76;101404.72;4934890;29;20213;-73
2023/03/01 06:41:49;;;;;;;41.77;23.63;;;0.10;99.90;;;-0.04;66.44;101399.31;4937820;29;20217;-75
2023/03/01 06:44:18;;;;;;;45.00;23.53;;;0.10;99.90;;;0.04;66.18;101397.19;4931120;29;20214;-73
2023/03/01 06:46:47;;;;;;;45.93;24.27;;;0.20;99.90;;;0.13;66.28;101391.69;4935835;29;20210;-72
2023/03/01 06:49:17;;;;;;;42.70;23.77;;;0.30;99.90;;;0.18;65.51;101393.66;4935325;29;20210;-76
2023/03/01 06:51:46;;;;;;;52.57;25.00;;;0.40;99.90;;;0.23;65.46;101394.81;4938594;29;20277;-82
2023/03/01 06:54:15;;;;;;;40.70;23.40;;;0.40;99.90;;;0.35;64.98;101394.56;4935950;29;20928;-80
2023/03/01 06:56:43;;;;;;;40.47;23.00;;;0.50;99.90;;;0.43;64.90;101388.19;4937822;29;20584;-78
2023/03/01 06:59:12;;;;;;;42.97;24.43;;;0.60;99.90;;;0.55;64.58;101402.28;4937797;29;20248;-75
2023/03/01 07:01:42;;;;;;;41.87;23.67;;;0.80;99.90;;;0.66;64.42;101403.69;4916783;29;20218;-74
2023/03/01 07:04:11;;;;;;;43.83;23.43;;;0.90;99.90;;;0.77;64.31;101402.56;4939186;29;20257;-74
2023/03/01 07:06:41;;;;;;;46.53;22.93;;;1.00;99.90;;;0.87;63.34;101406.44;4913902;29;20266;-74
2023/03/01 07:09:13;;;;;;;38.47;23.33;;;1.10;99.90;;;0.94;63.43;101398.34;4937393;29;20210;-75
2023/03/01 07:11:42;;;;;;;39.67;23.20;;;1.20;99.90;;;1.05;63.15;101404.81;4936675;29;20225;-74
2023/03/01 07:14:11;;;;;;;42.13;23.37;;;1.20;99.90;;;1.20;62.64;101402.16;4921846;29;20241;-75
2023/03/01 07:16:40;;;;;;;44.37;23.53;;;1.40;99.90;;;1.33;62.44;101389.25;4938337;29;20229;-76
2023/03/01 07:19:08;;;;;;;43.43;24.93;;;1.60;99.90;;;1.54;62.37;101396.13;4936432;29;20741;-75
2023/03/01 07:21:38;;;;;;;42.83;23.87;;;1.80;99.90;;;1.75;61.68;101389.50;4939053;29;20291;-76
2023/03/01 07:24:10;;;;;;;39.17;22.40;;;2.00;99.90;;;1.93;60.71;101390.31;4938116;29;20242;-75
2023/03/01 07:26:38;;;;;;;41.73;22.57;;;2.20;99.90;;;2.04;60.06;101377.22;4937927;29;20202;-76
2023/03/01 07:29:11;;;;;;;38.67;22.30;;;2.30;99.90;;;2.17;60.10;101379.50;4915421;29;20636;-77
2023/03/01 07:31:41;;;;;;;37.73;20.63;;;2.40;99.90;;;2.35;59.24;101371.78;4916519;29;20265;-74
2023/03/01 07:34:10;;;;;;;35.50;21.00;;;2.60;99.90;;;2.44;58.88;101373.88;4916929;29;20615;-74
2023/03/01 07:36:39;;;;;;;36.20;21.63;;;2.70;99.90;;;2.50;58.81;101363.94;4910570;29;20226;-74
2023/03/01 07:39:10;;;;;;;38.83;21.83;;;2.70;99.90;;;2.62;58.54;101372.97;4916456;29;20211;-75
2023/03/01 07:41:38;;;;;;;38.27;21.23;;;2.90;99.90;;;2.74;58.53;101364.97;4914827;29;20300;-75
2023/03/01 07:44:09;;;;;;;38.17;21.83;;;3.00;99.90;;;2.83;57.90;101372.13;4915001;29;20298;-76
2023/03/01 07:46:38;;;;;;;37.43;21.43;;;3.10;99.90;;;2.95;57.20;101367.53;4917868;29;20588;-77
2023/03/01 07:49:07;;;;;;;36.70;20.23;;;3.30;99.90;;;3.10;57.60;101368.16;4915959;29;20214;-74
2023/03/01 07:51:35;;;;;;;34.37;20.90;;;3.40;99.90;;;3.26;56.88;101372.16;4917162;29;20211;-73
2023/03/01 07:54:08;;;;;;;32.70;20.00;;;3.60;99.90;;;3.39;56.29;101376.09;4978892;23;20241;-82
2023/03/01 07:56:36;;;;;;;30.83;19.10;;;3.60;99.90;;;3.48;55.51;101373.00;5162454;23;20237;-76
2023/03/01 07:59:06;;;;;;;32.73;20.27;;;3.80;99.90;;;3.54;55.45;101373.25;4927895;29;20221;-80
2023/03/01 08:01:34;;;;;;;31.13;19.53;;;3.90;99.90;;;3.58;55.35;101370.00;4933616;29;20214;-78
2023/03/01 08:04:06;;;;;;;36.07;20.70;;;4.00;99.90;;;3.67;54.41;101379.69;4938032;29;20198;-82
2023/03/01 08:06:37;;;;;;;31.67;19.50;;;4.00;99.90;;;3.72;54.63;101381.59;4934294;29;20210;-81
2023/03/01 08:09:08;;;;;;;37.90;21.03;;;4.10;99.90;;;3.76;54.57;101365.59;4949214;29;20225;-78
2023/03/01 08:11:37;;;;;;;33.43;18.53;;;4.10;99.90;;;3.90;55.01;101373.75;4935040;29;20193;-82
2023/03/01 08:14:07;;;;;;;31.70;18.27;;;4.20;99.90;;;3.99;54.01;101373.22;4935434;29;20235;-80
2023/03/01 08:16:37;;;;;;;36.47;19.37;;;4.40;99.90;;;4.13;54.48;101378.84;4938344;29;20218;-79
2023/03/01 08:19:09;;;;;;;36.27;19.73;;;4.50;99.90;;;4.32;54.55;101378.66;5014133;23;20292;-80
2023/03/01 08:21:43;;;;;;;31.20;19.07;;;4.60;99.90;;;4.49;53.59;101379.25;5656310;23;20531;-78
2023/03/01 08:24:13;;;;;;;33.53;18.97;;;4.80;99.90;;;4.62;53.55;101373.75;4986979;23;20234;-79
2023/03/01 08:26:42;;;;;;;32.83;18.17;;;4.90;99.90;;;4.70;52.44;101377.41;5166076;23;20321;-79
2023/03/01 08:29:11;;;;;;;33.67;18.77;;;5.00;99.90;;;4.76;52.83;101374.22;4958003;28;20210;-80
2023/03/01 08:34:31;;;;;;;27.67;17.00;;;5.20;99.90;;;5.02;52.63;101375.06;5374964;23;20226;-76
2023/03/01 08:40:16;;;;;;;26.03;17.20;;;5.60;99.90;;;5.45;51.45;101356.84;5390189;23;20221;31
2023/03/01 08:42:45;;;;;;;28.87;16.83;;;5.80;99.90;;;5.70;51.28;101355.88;4911844;29;20262;-80
2023/03/01 08:45:17;;;;;;;32.23;17.20;;;6.00;99.90;;;5.90;50.68;101360.72;4902219;29;20275;-81
2023/03/01 08:47:46;;;;;;;30.47;17.47;;;6.20;99.90;;;6.08;50.28;101361.25;4905934;29;20248;-80
2023/03/01 08:50:16;;;;;;;26.40;16.43;;;6.40;99.90;;;6.34;49.61;101356.00;4902598;29;20276;-80
2023/03/01 08:52:45;;;;;;;31.83;16.17;;;6.70;99.90;;;6.49;49.03;101370.06;4897572;29;20207;-81
2023/03/01 08:55:17;;;;;;;27.47;16.87;;;6.90;99.90;;;6.77;49.05;101376.75;4905057;29;20209;-82
2023/03/01 08:57:45;;;;;;;27.37;15.00;;;7.20;99.90;;;7.23;48.56;101367.63;4914391;29;20204;-79
2023/03/01 09:00:17;;;;;;;26.13;14.87;;;7.60;99.90;;;7.53;47.37;101370.84;4905137;29;20275;-79
2023/03/01 09:02:46;;;;;;;24.80;15.17;;;7.80;99.90;;;7.79;46.38;101367.13;4911162;29;20326;-79
2023/03/01 09:05:15;;;;;;;32.60;19.07;;;8.10;99.90;;;8.05;46.01;101365.09;4907797;29;20271;-79
2023/03/01 09:07:45;;;;;;;26.37;16.17;;;8.40;99.90;;;8.29;45.48;101356.16;4914888;29;20218;-80
2023/03/01 09:10:14;;;;;;;30.20;16.70;;;8.60;99.90;;;8.52;46.18;101364.31;4904831;29;20236;-78
2023/03/01 09:12:43;;;;;;;27.67;16.67;;;8.90;99.90;;;9.17;46.01;101364.56;4907226;29;20215;-80
2023/03/01 09:15:12;;;;;;;26.33;17.07;;;9.60;99.90;;;10.86;44.23;101360.59;4912580;29;20252;-80
2023/03/01 09:17:41;;;;;;;31.37;18.70;;;11.40;99.90;;;13.25;38.02;101358.00;4902284;29;20231;-79
2023/03/01 09:20:11;;;;;;;28.27;17.50;;;13.30;94.00;;;15.67;32.14;101348.72;4911321;29;20203;-80
2023/03/01 09:22:40;;;;;;;26.87;17.73;;;15.30;82.50;;;17.25;29.09;101342.03;4903474;29;20271;-78
2023/03/01 09:25:09;;;;;;;26.87;17.53;;;16.60;71.80;;;18.75;26.45;101333.66;4901984;29;20212;-79
2023/03/01 09:27:40;;;;;;;26.87;18.27;;;17.90;63.30;;;19.73;24.69;101333.63;4898909;29;20215;-77
2023/03/01 09:30:11;;;;;;;26.83;17.60;;;18.70;58.60;;;20.12;24.04;101325.53;4892477;29;20230;-77
2023/03/01 09:32:42;;;;;;;23.10;16.67;;;19.30;55.50;;;19.82;24.18;101316.00;4897851;29;20206;-81
2023/03/01 09:35:11;;;;;;;24.33;17.38;;;19.30;53.40;;;19.48;24.25;101322.16;4904199;29;20268;-80
2023/03/01 09:37:42;;;;;;;27.27;18.90;;;19.30;53.10;;;19.68;24.26;101314.63;4907057;29;20268;-81
2023/03/01 09:45:53;;;;;;;22.98;16.95;;;21.00;50.70;;;22.51;20.56;101309.19;5439283;23;20542;-79
2023/03/01 09:48:29;;;;;;;21.02;15.68;;;22.10;47.90;;;23.33;19.50;101311.84;5367853;23;20253;-80
2023/03/01 09:51:04;;;;;;;19.55;14.93;;;22.70;45.90;;;23.69;18.94;101311.13;5269992;23;20241;-80
2023/03/01 09:53:36;;;;;;;24.55;17.02;;;23.10;45.90;;;24.76;18.16;101303.34;5409440;23;21197;-81
2023/03/01 09:56:14;;;;;;;22.90;15.77;;;24.00;45.10;;;26.01;16.95;101290.56;5413955;23;20229;-81
2023/03/01 10:07:18;;;;;;;21.67;16.85;;;28.90;38.20;;;31.66;12.17;101286.53;5398609;23;22742;-81
2023/03/01 10:12:47;;;;;;;19.25;14.25;;;31.10;35.10;;;33.31;11.41;101265.59;5624316;23;20524;-81
2023/03/01 10:15:20;;;;;;;18.25;13.90;;;31.90;33.50;;;34.04;10.67;101259.03;5483201;23;20237;-80
2023/03/01 10:20:43;;;;;;;16.55;12.82;;;32.60;30.90;;;34.55;10.08;101257.91;5325695;23;20289;-80
2023/03/01 10:25:58;;;;;;;15.93;14.05;;;33.50;30.30;;;35.74;9.50;101242.88;4910896;29;20199;-82
2023/03/01 10:28:31;;;;;;;15.45;12.70;;;34.00;30.00;;;36.42;8.96;101245.00;4907992;29;20254;-82
2023/03/01 10:31:01;;;;;;;16.63;13.77;;;34.40;29.50;;;37.12;8.83;101247.63;4913549;29;20203;-83
2023/03/01 10:36:08;;;;;;;15.70;12.07;;;36.00;28.50;;;38.13;8.05;101252.91;4940995;29;20226;-81
2023/03/01 10:38:53;;;;;;;17.17;14.45;;;36.30;28.20;;;39.11;7.05;101243.84;4936317;29;20214;-83
2023/03/01 10:41:26;;;;;;;16.08;10.85;;;37.10;27.50;;;39.47;7.23;101246.84;4912158;29;20226;-83
2023/03/01 10:43:59;;;;;;;13.93;11.20;;;37.80;27.20;;;39.40;7.36;101247.75;4997373;23;20245;-81
2023/03/01 10:46:45;;;;;;;20.10;13.20;;;38.10;26.60;;;39.64;7.09;101244.91;5088295;23;20229;31
2023/03/01 10:49:22;;;;;;;15.25;11.98;;;38.20;26.70;;;39.62;7.17;101238.84;4958437;23;20248;-83
2023/03/01 10:51:54;;;;;;;13.05;11.20;;;38.20;26.30;;;39.43;7.01;101239.31;4956207;28;20225;-81